sensor_id;sensor_type;location;lat;lon;timestamp;P1;durP1;ratioP1;P2;durP2;ratioP2
21235;SDS011;10775;42.678;26.324;2022-10-26T05:58:51;5.28;;;2.05;;
21235;SDS011;10775;42.678;26.324;2022-10-26T06:01:27;3.63;;;2.20;;
21235;SDS011;10775;42.678;26.324;2022-10-26T06:09:14;4.25;;;2.08;;
21235;SDS011;10775;42.678;26.324;2022-10-26T06:11:40;3.78;;;2.30;;
21235;SDS011;10775;42.678;26.324;2022-10-26T06:14:07;6.53;;;2.78;;
21235;SDS011;10775;42.678;26.324;2022-10-26T06:21:55;6.40;;;2.50;;
21235;SDS011;10775;42.678;26.324;2022-10-26T06:24:32;3.75;;;2.20;;
21235;SDS011;10775;42.678;26.324;2022-10-26T06:30:03;4.90;;;2.78;;
21235;SDS011;10775;42.678;26.324;2022-10-26T06:32:34;5.95;;;2.63;;
21235;SDS011;10775;42.678;26.324;2022-10-26T06:35:04;5.68;;;2.85;;
21235;SDS011;10775;42.678;26.324;2022-10-26T06:37:32;6.63;;;2.17;;
21235;SDS011;10775;42.678;26.324;2022-10-26T06:40:00;4.53;;;2.50;;
21235;SDS011;10775;42.678;26.324;2022-10-26T06:42:27;5.47;;;2.13;;
21235;SDS011;10775;42.678;26.324;2022-10-26T06:44:54;6.88;;;2.17;;
21235;SDS011;10775;42.678;26.324;2022-10-26T06:47:24;4.70;;;2.70;;
21235;SDS011;10775;42.678;26.324;2022-10-26T06:55:44;5.05;;;2.47;;
21235;SDS011;10775;42.678;26.324;2022-10-26T06:58:18;5.07;;;2.80;;
21235;SDS011;10775;42.678;26.324;2022-10-26T07:00:47;5.13;;;2.60;;
21235;SDS011;10775;42.678;26.324;2022-10-26T07:03:14;5.57;;;3.05;;
21235;SDS011;10775;42.678;26.324;2022-10-26T07:05:41;10.02;;;3.90;;
21235;SDS011;10775;42.678;26.324;2022-10-26T07:08:08;4.28;;;3.00;;
21235;SDS011;10775;42.678;26.324;2022-10-26T07:10:33;6.32;;;3.63;;
21235;SDS011;10775;42.678;26.324;2022-10-26T07:13:03;14.40;;;4.83;;
21235;SDS011;10775;42.678;26.324;2022-10-26T07:15:29;5.78;;;3.13;;
21235;SDS011;10775;42.678;26.324;2022-10-26T07:17:55;5.53;;;2.97;;
21235;SDS011;10775;42.678;26.324;2022-10-26T07:20:20;5.82;;;3.35;;
21235;SDS011;10775;42.678;26.324;2022-10-26T07:22:53;6.43;;;3.00;;
21235;SDS011;10775;42.678;26.324;2022-10-26T07:25:19;8.60;;;4.47;;
21235;SDS011;10775;42.678;26.324;2022-10-26T07:27:45;6.70;;;3.50;;
21235;SDS011;10775;42.678;26.324;2022-10-26T07:30:11;6.07;;;2.80;;
21235;SDS011;10775;42.678;26.324;2022-10-26T07:32:37;5.95;;;3.10;;
21235;SDS011;10775;42.678;26.324;2022-10-26T07:35:03;7.47;;;3.80;;
21235;SDS011;10775;42.678;26.324;2022-10-26T07:37:29;13.50;;;7.15;;
21235;SDS011;10775;42.678;26.324;2022-10-26T07:39:54;10.77;;;6.13;;
21235;SDS011;10775;42.678;26.324;2022-10-26T07:42:20;9.00;;;5.03;;
21235;SDS011;10775;42.678;26.324;2022-10-26T07:44:46;10.55;;;3.65;;
21235;SDS011;10775;42.678;26.324;2022-10-26T07:47:12;8.57;;;3.75;;
21235;SDS011;10775;42.678;26.324;2022-10-26T07:49:38;7.97;;;3.78;;
21235;SDS011;10775;42.678;26.324;2022-10-26T07:52:04;13.02;;;5.75;;
21235;SDS011;10775;42.678;26.324;2022-10-26T07:54:30;9.35;;;4.22;;
21235;SDS011;10775;42.678;26.324;2022-10-26T07:56:56;9.07;;;4.50;;
21235;SDS011;10775;42.678;26.324;2022-10-26T07:59:22;13.32;;;5.03;;
21235;SDS011;10775;42.678;26.324;2022-10-26T08:01:47;16.17;;;5.88;;
21235;SDS011;10775;42.678;26.324;2022-10-26T08:04:13;4.88;;;3.10;;
21235;SDS011;10775;42.678;26.324;2022-10-26T08:06:40;10.98;;;4.63;;
21235;SDS011;10775;42.678;26.324;2022-10-26T08:09:05;13.88;;;8.38;;
21235;SDS011;10775;42.678;26.324;2022-10-26T08:11:31;24.55;;;8.23;;
21235;SDS011;10775;42.678;26.324;2022-10-26T08:13:56;11.15;;;4.38;;
21235;SDS011;10775;42.678;26.324;2022-10-26T08:16:22;24.45;;;7.75;;
21235;SDS011;10775;42.678;26.324;2022-10-26T08:18:49;17.45;;;7.45;;
21235;SDS011;10775;42.678;26.324;2022-10-26T08:21:15;14.85;;;5.65;;
21235;SDS011;10775;42.678;26.324;2022-10-26T08:23:42;30.40;;;9.65;;
21235;SDS011;10775;42.678;26.324;2022-10-26T08:26:08;11.40;;;4.78;;
21235;SDS011;10775;42.678;26.324;2022-10-26T08:28:37;14.80;;;5.10;;
21235;SDS011;10775;42.678;26.324;2022-10-26T08:31:04;22.92;;;8.55;;
21235;SDS011;10775;42.678;26.324;2022-10-26T08:33:31;16.00;;;6.30;;
21235;SDS011;10775;42.678;26.324;2022-10-26T08:35:57;29.88;;;11.07;;
21235;SDS011;10775;42.678;26.324;2022-10-26T08:38:25;18.17;;;7.43;;
21235;SDS011;10775;42.678;26.324;2022-10-26T08:40:51;10.63;;;3.50;;
21235;SDS011;10775;42.678;26.324;2022-10-26T08:43:28;5.78;;;3.53;;
21235;SDS011;10775;42.678;26.324;2022-10-26T08:46:23;27.10;;;12.23;;
21235;SDS011;10775;42.678;26.324;2022-10-26T08:49:39;14.95;;;6.28;;
21235;SDS011;10775;42.678;26.324;2022-10-26T08:51:44;15.32;;;7.32;;
21235;SDS011;10775;42.678;26.324;2022-10-26T08:54:18;13.90;;;6.45;;
21235;SDS011;10775;42.678;26.324;2022-10-26T08:56:56;17.43;;;8.03;;
21235;SDS011;10775;42.678;26.324;2022-10-26T09:01:53;18.77;;;8.23;;
21235;SDS011;10775;42.678;26.324;2022-10-26T09:04:19;21.63;;;8.57;;
21235;SDS011;10775;42.678;26.324;2022-10-26T09:10:34;18.52;;;6.93;;
21235;SDS011;10775;42.678;26.324;2022-10-26T09:13:12;20.70;;;10.30;;
21235;SDS011;10775;42.678;26.324;2022-10-26T09:26:55;9.38;;;3.45;;
21235;SDS011;10775;42.678;26.324;2022-10-26T09:29:41;9.05;;;3.97;;
21235;SDS011;10775;42.678;26.324;2022-10-26T09:32:16;9.20;;;4.82;;
21235;SDS011;10775;42.678;26.324;2022-10-26T09:34:54;15.73;;;6.60;;
21235;SDS011;10775;42.678;26.324;2022-10-26T09:37:24;6.05;;;3.10;;
21235;SDS011;10775;42.678;26.324;2022-10-26T09:42:42;13.32;;;5.15;;
21235;SDS011;10775;42.678;26.324;2022-10-26T09:47:43;10.18;;;5.20;;
21235;SDS011;10775;42.678;26.324;2022-10-26T09:50:35;14.57;;;5.60;;
21235;SDS011;10775;42.678;26.324;2022-10-26T09:53:03;13.27;;;5.95;;
21235;SDS011;10775;42.678;26.324;2022-10-26T09:55:32;16.50;;;5.88;;
21235;SDS011;10775;42.678;26.324;2022-10-26T09:58:03;10.75;;;5.00;;
21235;SDS011;10775;42.678;26.324;2022-10-26T10:00:37;12.32;;;3.70;;
21235;SDS011;10775;42.678;26.324;2022-10-26T10:03:15;12.80;;;4.78;;
21235;SDS011;10775;42.678;26.324;2022-10-26T10:06:18;5.55;;;3.28;;
21235;SDS011;10775;42.678;26.324;2022-10-26T10:09:03;9.77;;;5.47;;
21235;SDS011;10775;42.678;26.324;2022-10-26T10:11:50;9.20;;;3.72;;
21235;SDS011;10775;42.678;26.324;2022-10-26T10:14:28;9.38;;;4.47;;
21235;SDS011;10775;42.678;26.324;2022-10-26T10:17:02;11.00;;;4.25;;
21235;SDS011;10775;42.678;26.324;2022-10-26T10:19:33;11.10;;;5.40;;
21235;SDS011;10775;42.678;26.324;2022-10-26T10:22:00;35.20;;;17.15;;
21235;SDS011;10775;42.678;26.324;2022-10-26T10:24:36;25.65;;;13.02;;
21235;SDS011;10775;42.678;26.324;2022-10-26T10:27:07;6.90;;;3.45;;
21235;SDS011;10775;42.678;26.324;2022-10-26T10:32:15;11.30;;;4.57;;
21235;SDS011;10775;42.678;26.324;2022-10-26T10:34:45;4.05;;;2.85;;
21235;SDS011;10775;42.678;26.324;2022-10-26T10:39:49;12.27;;;4.03;;
21235;SDS011;10775;42.678;26.324;2022-10-26T10:42:21;6.88;;;2.80;;
21235;SDS011;10775;42.678;26.324;2022-10-26T10:44:54;9.00;;;3.80;;
21235;SDS011;10775;42.678;26.324;2022-10-26T10:47:22;6.25;;;4.22;;
21235;SDS011;10775;42.678;26.324;2022-10-26T10:49:54;9.35;;;4.00;;
21235;SDS011;10775;42.678;26.324;2022-10-26T10:52:26;9.13;;;4.47;;
21235;SDS011;10775;42.678;26.324;2022-10-26T10:55:01;10.10;;;5.10;;
21235;SDS011;10775;42.678;26.324;2022-10-26T10:57:38;5.55;;;2.35;;
21235;SDS011;10775;42.678;26.324;2022-10-26T11:00:20;8.70;;;3.50;;
21235;SDS011;10775;42.678;26.324;2022-10-26T11:05:58;7.22;;;3.45;;
21235;SDS011;10775;42.678;26.324;2022-10-26T11:08:29;2.75;;;1.90;;
21235;SDS011;10775;42.678;26.324;2022-10-26T11:21:49;9.73;;;3.58;;
21235;SDS011;10775;42.678;26.324;2022-10-26T11:24:39;2.13;;;1.30;;
21235;SDS011;10775;42.678;26.324;2022-10-26T11:27:17;1.70;;;1.45;;
21235;SDS011;10775;42.678;26.324;2022-10-26T11:30:17;4.35;;;2.38;;
21235;SDS011;10775;42.678;26.324;2022-10-26T11:32:46;7.30;;;2.33;;
21235;SDS011;10775;42.678;26.324;2022-10-26T11:35:29;6.72;;;2.35;;
21235;SDS011;10775;42.678;26.324;2022-10-26T11:38:43;3.30;;;2.15;;
21235;SDS011;10775;42.678;26.324;2022-10-26T11:44:10;2.97;;;1.52;;
21235;SDS011;10775;42.678;26.324;2022-10-26T11:46:42;2.25;;;1.52;;
21235;SDS011;10775;42.678;26.324;2022-10-26T11:49:46;2.25;;;1.58;;
21235;SDS011;10775;42.678;26.324;2022-10-26T11:52:29;6.40;;;2.75;;
21235;SDS011;10775;42.678;26.324;2022-10-26T11:55:04;1.65;;;1.40;;
21235;SDS011;10775;42.678;26.324;2022-10-26T11:57:33;2.92;;;0.98;;
21235;SDS011;10775;42.678;26.324;2022-10-26T12:00:05;3.30;;;1.92;;
21235;SDS011;10775;42.678;26.324;2022-10-26T12:02:40;3.13;;;1.40;;
21235;SDS011;10775;42.678;26.324;2022-10-26T12:05:10;1.10;;;0.93;;
21235;SDS011;10775;42.678;26.324;2022-10-26T12:07:43;4.18;;;2.00;;
21235;SDS011;10775;42.678;26.324;2022-10-26T12:10:36;4.43;;;3.28;;
21235;SDS011;10775;42.678;26.324;2022-10-26T12:15:46;2.40;;;1.45;;
21235;SDS011;10775;42.678;26.324;2022-10-26T12:18:25;2.40;;;1.45;;
21235;SDS011;10775;42.678;26.324;2022-10-26T12:21:10;5.85;;;4.43;;
21235;SDS011;10775;42.678;26.324;2022-10-26T12:23:58;3.50;;;2.05;;
21235;SDS011;10775;42.678;26.324;2022-10-26T12:34:00;2.35;;;1.38;;
21235;SDS011;10775;42.678;26.324;2022-10-26T12:39:32;3.10;;;2.00;;
21235;SDS011;10775;42.678;26.324;2022-10-26T12:44:34;2.03;;;1.60;;
21235;SDS011;10775;42.678;26.324;2022-10-26T12:47:00;1.90;;;1.48;;
21235;SDS011;10775;42.678;26.324;2022-10-26T13:01:19;2.40;;;1.33;;
21235;SDS011;10775;42.678;26.324;2022-10-26T13:04:19;2.50;;;1.30;;
21235;SDS011;10775;42.678;26.324;2022-10-26T13:07:12;4.18;;;1.88;;
21235;SDS011;10775;42.678;26.324;2022-10-26T13:09:52;4.47;;;2.60;;
21235;SDS011;10775;42.678;26.324;2022-10-26T13:12:37;5.07;;;2.20;;
21235;SDS011;10775;42.678;26.324;2022-10-26T13:15:21;1.83;;;1.60;;
21235;SDS011;10775;42.678;26.324;2022-10-26T13:18:09;6.43;;;2.83;;
21235;SDS011;10775;42.678;26.324;2022-10-26T13:20:57;2.78;;;1.90;;
21235;SDS011;10775;42.678;26.324;2022-10-26T13:23:31;2.22;;;1.23;;
21235;SDS011;10775;42.678;26.324;2022-10-26T13:26:17;3.88;;;2.05;;
21235;SDS011;10775;42.678;26.324;2022-10-26T13:28:46;4.32;;;2.10;;
21235;SDS011;10775;42.678;26.324;2022-10-26T13:36:32;3.13;;;1.92;;
21235;SDS011;10775;42.678;26.324;2022-10-26T13:39:04;2.53;;;1.13;;
21235;SDS011;10775;42.678;26.324;2022-10-26T13:41:38;3.05;;;1.60;;
21235;SDS011;10775;42.678;26.324;2022-10-26T13:44:11;3.47;;;1.60;;
21235;SDS011;10775;42.678;26.324;2022-10-26T13:46:43;2.03;;;1.50;;
21235;SDS011;10775;42.678;26.324;2022-10-26T13:49:30;2.85;;;2.17;;
21235;SDS011;10775;42.678;26.324;2022-10-26T13:54:29;3.88;;;1.83;;
21235;SDS011;10775;42.678;26.324;2022-10-26T14:02:44;2.97;;;1.60;;
21235;SDS011;10775;42.678;26.324;2022-10-26T14:05:11;2.58;;;1.20;;
21235;SDS011;10775;42.678;26.324;2022-10-26T14:07:43;3.60;;;2.15;;
21235;SDS011;10775;42.678;26.324;2022-10-26T14:13:14;4.72;;;2.33;;
21235;SDS011;10775;42.678;26.324;2022-10-26T14:15:42;5.15;;;2.97;;
21235;SDS011;10775;42.678;26.324;2022-10-26T14:18:23;3.88;;;2.55;;
21235;SDS011;10775;42.678;26.324;2022-10-26T14:21:12;7.75;;;2.78;;
21235;SDS011;10775;42.678;26.324;2022-10-26T14:23:48;6.38;;;3.20;;
21235;SDS011;10775;42.678;26.324;2022-10-26T14:26:19;3.33;;;2.22;;
21235;SDS011;10775;42.678;26.324;2022-10-26T14:28:49;12.25;;;4.18;;
21235;SDS011;10775;42.678;26.324;2022-10-26T14:31:25;2.88;;;1.90;;
21235;SDS011;10775;42.678;26.324;2022-10-26T14:33:53;4.68;;;2.35;;
21235;SDS011;10775;42.678;26.324;2022-10-26T14:36:21;4.70;;;2.78;;
21235;SDS011;10775;42.678;26.324;2022-10-26T14:38:52;6.53;;;2.83;;
21235;SDS011;10775;42.678;26.324;2022-10-26T14:41:22;3.97;;;2.30;;
21235;SDS011;10775;42.678;26.324;2022-10-26T14:43:50;3.58;;;2.22;;
21235;SDS011;10775;42.678;26.324;2022-10-26T14:46:18;7.28;;;2.22;;
21235;SDS011;10775;42.678;26.324;2022-10-26T14:48:51;3.70;;;2.08;;
21235;SDS011;10775;42.678;26.324;2022-10-26T14:51:24;10.65;;;2.22;;
21235;SDS011;10775;42.678;26.324;2022-10-26T14:53:53;3.58;;;2.30;;
21235;SDS011;10775;42.678;26.324;2022-10-26T14:56:22;7.15;;;2.58;;
21235;SDS011;10775;42.678;26.324;2022-10-26T14:58:48;5.45;;;2.28;;
21235;SDS011;10775;42.678;26.324;2022-10-26T15:04:00;9.63;;;5.57;;
21235;SDS011;10775;42.678;26.324;2022-10-26T15:08:53;3.67;;;2.10;;
21235;SDS011;10775;42.678;26.324;2022-10-26T15:11:24;3.85;;;2.38;;
21235;SDS011;10775;42.678;26.324;2022-10-26T15:13:51;4.68;;;2.53;;
21235;SDS011;10775;42.678;26.324;2022-10-26T15:16:27;3.47;;;2.50;;
21235;SDS011;10775;42.678;26.324;2022-10-26T15:19:08;3.97;;;2.10;;
21235;SDS011;10775;42.678;26.324;2022-10-26T15:21:38;5.40;;;2.47;;
21235;SDS011;10775;42.678;26.324;2022-10-26T15:24:20;5.53;;;3.53;;
21235;SDS011;10775;42.678;26.324;2022-10-26T15:26:51;3.90;;;2.45;;
21235;SDS011;10775;42.678;26.324;2022-10-26T15:32:42;4.32;;;2.95;;
21235;SDS011;10775;42.678;26.324;2022-10-26T15:37:45;9.30;;;2.50;;
21235;SDS011;10775;42.678;26.324;2022-10-26T15:40:12;5.90;;;2.15;;
21235;SDS011;10775;42.678;26.324;2022-10-26T15:42:39;7.70;;;2.70;;
21235;SDS011;10775;42.678;26.324;2022-10-26T15:47:48;8.80;;;4.97;;
21235;SDS011;10775;42.678;26.324;2022-10-26T15:50:18;6.78;;;3.67;;
21235;SDS011;10775;42.678;26.324;2022-10-26T15:52:46;7.05;;;3.40;;
21235;SDS011;10775;42.678;26.324;2022-10-26T15:55:12;6.40;;;3.85;;
21235;SDS011;10775;42.678;26.324;2022-10-26T15:57:37;6.70;;;4.10;;
21235;SDS011;10775;42.678;26.324;2022-10-26T16:00:04;6.50;;;3.60;;
21235;SDS011;10775;42.678;26.324;2022-10-26T16:02:31;6.93;;;3.15;;
21235;SDS011;10775;42.678;26.324;2022-10-26T16:04:59;9.60;;;4.88;;
21235;SDS011;10775;42.678;26.324;2022-10-26T16:07:25;5.97;;;3.53;;
21235;SDS011;10775;42.678;26.324;2022-10-26T16:09:51;18.77;;;8.02;;
21235;SDS011;10775;42.678;26.324;2022-10-26T16:12:18;10.32;;;4.90;;
21235;SDS011;10775;42.678;26.324;2022-10-26T16:14:43;8.27;;;3.22;;
21235;SDS011;10775;42.678;26.324;2022-10-26T16:17:09;4.35;;;2.47;;
21235;SDS011;10775;42.678;26.324;2022-10-26T16:19:35;5.18;;;2.83;;
21235;SDS011;10775;42.678;26.324;2022-10-26T16:22:00;7.93;;;2.95;;
21235;SDS011;10775;42.678;26.324;2022-10-26T16:24:26;3.78;;;2.20;;
21235;SDS011;10775;42.678;26.324;2022-10-26T16:26:53;3.97;;;3.08;;
21235;SDS011;10775;42.678;26.324;2022-10-26T16:29:19;8.98;;;4.10;;
21235;SDS011;10775;42.678;26.324;2022-10-26T16:31:45;4.32;;;3.05;;
21235;SDS011;10775;42.678;26.324;2022-10-26T16:34:11;7.65;;;3.63;;
21235;SDS011;10775;42.678;26.324;2022-10-26T16:36:36;6.75;;;4.60;;
21235;SDS011;10775;42.678;26.324;2022-10-26T16:39:03;5.43;;;3.92;;
21235;SDS011;10775;42.678;26.324;2022-10-26T16:41:29;8.23;;;4.07;;
21235;SDS011;10775;42.678;26.324;2022-10-26T16:43:56;8.05;;;4.60;;
21235;SDS011;10775;42.678;26.324;2022-10-26T16:46:22;3.92;;;2.95;;
21235;SDS011;10775;42.678;26.324;2022-10-26T16:48:48;5.63;;;2.97;;
21235;SDS011;10775;42.678;26.324;2022-10-26T16:51:16;6.80;;;3.53;;
21235;SDS011;10775;42.678;26.324;2022-10-26T16:53:46;11.25;;;6.40;;
21235;SDS011;10775;42.678;26.324;2022-10-26T16:56:14;8.68;;;3.70;;
21235;SDS011;10775;42.678;26.324;2022-10-26T16:58:41;6.47;;;4.05;;
21235;SDS011;10775;42.678;26.324;2022-10-26T17:01:07;4.68;;;2.35;;
21235;SDS011;10775;42.678;26.324;2022-10-26T17:03:34;4.35;;;2.20;;
21235;SDS011;10775;42.678;26.324;2022-10-26T17:06:01;6.75;;;2.28;;
21235;SDS011;10775;42.678;26.324;2022-10-26T17:08:28;5.47;;;2.70;;
21235;SDS011;10775;42.678;26.324;2022-10-26T17:11:00;3.65;;;2.47;;
21235;SDS011;10775;42.678;26.324;2022-10-26T17:13:27;4.07;;;2.58;;
21235;SDS011;10775;42.678;26.324;2022-10-26T17:15:53;6.07;;;2.90;;
21235;SDS011;10775;42.678;26.324;2022-10-26T17:18:18;7.72;;;3.85;;
21235;SDS011;10775;42.678;26.324;2022-10-26T17:20:48;7.15;;;3.72;;
21235;SDS011;10775;42.678;26.324;2022-10-26T17:23:14;12.05;;;6.00;;
21235;SDS011;10775;42.678;26.324;2022-10-26T17:25:40;7.88;;;3.60;;
21235;SDS011;10775;42.678;26.324;2022-10-26T17:28:06;9.10;;;4.13;;
21235;SDS011;10775;42.678;26.324;2022-10-26T17:30:35;5.53;;;2.45;;
21235;SDS011;10775;42.678;26.324;2022-10-26T17:33:01;3.53;;;2.20;;
21235;SDS011;10775;42.678;26.324;2022-10-26T17:35:27;2.85;;;1.98;;
21235;SDS011;10775;42.678;26.324;2022-10-26T17:37:52;4.63;;;2.00;;
21235;SDS011;10775;42.678;26.324;2022-10-26T17:40:18;5.95;;;2.30;;
21235;SDS011;10775;42.678;26.324;2022-10-26T17:42:44;2.83;;;1.90;;
21235;SDS011;10775;42.678;26.324;2022-10-26T17:45:10;4.35;;;2.00;;
21235;SDS011;10775;42.678;26.324;2022-10-26T17:47:35;3.50;;;2.03;;
21235;SDS011;10775;42.678;26.324;2022-10-26T17:50:01;2.83;;;1.95;;
21235;SDS011;10775;42.678;26.324;2022-10-26T17:52:30;3.42;;;2.30;;
21235;SDS011;10775;42.678;26.324;2022-10-26T17:54:56;4.85;;;3.15;;
21235;SDS011;10775;42.678;26.324;2022-10-26T17:57:22;5.70;;;3.50;;
21235;SDS011;10775;42.678;26.324;2022-10-26T17:59:48;6.38;;;4.03;;
21235;SDS011;10775;42.678;26.324;2022-10-26T18:02:13;21.48;;;14.43;;
21235;SDS011;10775;42.678;26.324;2022-10-26T18:04:39;27.25;;;16.70;;
21235;SDS011;10775;42.678;26.324;2022-10-26T18:07:04;10.68;;;7.53;;
21235;SDS011;10775;42.678;26.324;2022-10-26T18:09:30;5.82;;;3.88;;
21235;SDS011;10775;42.678;26.324;2022-10-26T18:11:56;3.58;;;2.50;;
21235;SDS011;10775;42.678;26.324;2022-10-26T18:14:21;4.50;;;2.38;;
21235;SDS011;10775;42.678;26.324;2022-10-26T18:16:47;5.07;;;3.05;;
21235;SDS011;10775;42.678;26.324;2022-10-26T18:19:13;3.80;;;2.50;;
21235;SDS011;10775;42.678;26.324;2022-10-26T18:21:38;2.38;;;1.92;;
21235;SDS011;10775;42.678;26.324;2022-10-26T18:24:04;4.05;;;2.85;;
21235;SDS011;10775;42.678;26.324;2022-10-26T18:26:31;5.00;;;3.58;;
21235;SDS011;10775;42.678;26.324;2022-10-26T18:28:57;4.55;;;3.15;;
21235;SDS011;10775;42.678;26.324;2022-10-26T18:31:25;3.95;;;2.83;;
21235;SDS011;10775;42.678;26.324;2022-10-26T18:33:56;3.05;;;2.00;;
21235;SDS011;10775;42.678;26.324;2022-10-26T18:36:26;3.58;;;2.60;;
21235;SDS011;10775;42.678;26.324;2022-10-26T18:38:52;3.60;;;2.40;;
21235;SDS011;10775;42.678;26.324;2022-10-26T18:41:19;3.47;;;1.70;;
21235;SDS011;10775;42.678;26.324;2022-10-26T18:43:46;3.10;;;1.67;;
21235;SDS011;10775;42.678;26.324;2022-10-26T18:46:17;3.53;;;2.05;;
21235;SDS011;10775;42.678;26.324;2022-10-26T18:48:47;4.38;;;2.25;;
21235;SDS011;10775;42.678;26.324;2022-10-26T18:51:15;2.83;;;1.85;;
21235;SDS011;10775;42.678;26.324;2022-10-26T18:53:42;3.38;;;1.80;;
21235;SDS011;10775;42.678;26.324;2022-10-26T18:56:10;3.13;;;2.20;;
21235;SDS011;10775;42.678;26.324;2022-10-26T18:58:41;7.13;;;2.53;;
21235;SDS011;10775;42.678;26.324;2022-10-26T19:03:45;6.32;;;3.47;;
21235;SDS011;10775;42.678;26.324;2022-10-26T19:06:13;3.65;;;3.03;;
21235;SDS011;10775;42.678;26.324;2022-10-26T19:08:40;4.13;;;2.25;;
21235;SDS011;10775;42.678;26.324;2022-10-26T19:11:11;4.15;;;2.30;;
21235;SDS011;10775;42.678;26.324;2022-10-26T19:13:41;2.70;;;2.17;;
21235;SDS011;10775;42.678;26.324;2022-10-26T19:16:08;3.60;;;1.95;;
21235;SDS011;10775;42.678;26.324;2022-10-26T19:18:35;4.38;;;2.60;;
21235;SDS011;10775;42.678;26.324;2022-10-26T19:21:12;3.88;;;2.63;;
21235;SDS011;10775;42.678;26.324;2022-10-26T19:23:42;3.40;;;2.28;;
21235;SDS011;10775;42.678;26.324;2022-10-26T19:26:10;3.72;;;2.47;;
21235;SDS011;10775;42.678;26.324;2022-10-26T19:28:37;3.10;;;2.35;;
21235;SDS011;10775;42.678;26.324;2022-10-26T19:31:03;4.13;;;2.42;;
21235;SDS011;10775;42.678;26.324;2022-10-26T19:33:31;3.25;;;2.17;;
21235;SDS011;10775;42.678;26.324;2022-10-26T19:35:58;5.35;;;2.13;;
21235;SDS011;10775;42.678;26.324;2022-10-26T19:38:28;3.42;;;1.90;;
21235;SDS011;10775;42.678;26.324;2022-10-26T19:43:24;2.60;;;1.77;;
21235;SDS011;10775;42.678;26.324;2022-10-26T19:45:50;8.00;;;4.68;;
21235;SDS011;10775;42.678;26.324;2022-10-26T19:48:15;3.30;;;2.13;;
21235;SDS011;10775;42.678;26.324;2022-10-26T19:50:46;4.13;;;2.35;;
21235;SDS011;10775;42.678;26.324;2022-10-26T19:53:21;2.75;;;2.10;;
21235;SDS011;10775;42.678;26.324;2022-10-26T19:55:47;3.33;;;2.13;;
21235;SDS011;10775;42.678;26.324;2022-10-26T19:58:14;5.40;;;2.55;;
21235;SDS011;10775;42.678;26.324;2022-10-26T20:00:40;3.45;;;2.05;;
21235;SDS011;10775;42.678;26.324;2022-10-26T20:03:06;2.80;;;1.77;;
21235;SDS011;10775;42.678;26.324;2022-10-26T20:05:33;3.78;;;2.22;;
21235;SDS011;10775;42.678;26.324;2022-10-26T20:07:58;3.40;;;2.10;;
21235;SDS011;10775;42.678;26.324;2022-10-26T20:10:24;2.55;;;1.90;;
21235;SDS011;10775;42.678;26.324;2022-10-26T20:12:49;3.10;;;2.13;;
21235;SDS011;10775;42.678;26.324;2022-10-26T20:15:15;2.95;;;1.90;;
21235;SDS011;10775;42.678;26.324;2022-10-26T20:17:40;3.47;;;2.00;;
21235;SDS011;10775;42.678;26.324;2022-10-26T20:20:06;2.03;;;1.80;;
21235;SDS011;10775;42.678;26.324;2022-10-26T20:22:32;2.85;;;1.80;;
21235;SDS011;10775;42.678;26.324;2022-10-26T20:24:58;3.22;;;2.45;;
21235;SDS011;10775;42.678;26.324;2022-10-26T20:27:24;3.75;;;2.08;;
21235;SDS011;10775;42.678;26.324;2022-10-26T20:29:49;2.25;;;1.80;;
21235;SDS011;10775;42.678;26.324;2022-10-26T20:32:15;3.03;;;2.22;;
21235;SDS011;10775;42.678;26.324;2022-10-26T20:34:40;2.83;;;2.17;;
21235;SDS011;10775;42.678;26.324;2022-10-26T20:37:07;4.18;;;2.05;;
21235;SDS011;10775;42.678;26.324;2022-10-26T20:39:33;3.63;;;2.10;;
21235;SDS011;10775;42.678;26.324;2022-10-26T20:41:59;3.30;;;2.20;;
21235;SDS011;10775;42.678;26.324;2022-10-26T20:44:25;3.80;;;2.78;;
21235;SDS011;10775;42.678;26.324;2022-10-26T20:46:56;2.90;;;2.22;;
21235;SDS011;10775;42.678;26.324;2022-10-26T20:49:22;2.83;;;1.88;;
21235;SDS011;10775;42.678;26.324;2022-10-26T20:54:27;3.30;;;2.28;;
21235;SDS011;10775;42.678;26.324;2022-10-26T20:56:57;3.45;;;2.25;;
21235;SDS011;10775;42.678;26.324;2022-10-26T21:02:11;2.80;;;1.90;;
21235;SDS011;10775;42.678;26.324;2022-10-26T21:04:36;3.15;;;1.70;;
21235;SDS011;10775;42.678;26.324;2022-10-26T21:07:02;3.22;;;1.98;;
21235;SDS011;10775;42.678;26.324;2022-10-26T21:09:28;3.05;;;2.00;;
21235;SDS011;10775;42.678;26.324;2022-10-26T21:11:55;2.55;;;2.00;;
21235;SDS011;10775;42.678;26.324;2022-10-26T21:14:22;2.85;;;1.90;;
21235;SDS011;10775;42.678;26.324;2022-10-26T21:16:48;4.32;;;2.03;;
21235;SDS011;10775;42.678;26.324;2022-10-26T21:19:14;2.88;;;2.08;;
21235;SDS011;10775;42.678;26.324;2022-10-26T21:21:40;2.83;;;1.88;;
21235;SDS011;10775;42.678;26.324;2022-10-26T21:24:05;2.38;;;1.67;;
21235;SDS011;10775;42.678;26.324;2022-10-26T21:26:31;2.25;;;1.80;;
21235;SDS011;10775;42.678;26.324;2022-10-26T21:28:57;1.98;;;1.77;;
21235;SDS011;10775;42.678;26.324;2022-10-26T21:31:23;2.95;;;1.90;;
21235;SDS011;10775;42.678;26.324;2022-10-26T21:33:48;2.95;;;2.15;;
21235;SDS011;10775;42.678;26.324;2022-10-26T21:36:14;2.47;;;1.95;;
21235;SDS011;10775;42.678;26.324;2022-10-26T21:38:41;2.25;;;2.00;;
21235;SDS011;10775;42.678;26.324;2022-10-26T21:41:09;3.13;;;2.05;;
21235;SDS011;10775;42.678;26.324;2022-10-26T21:43:38;2.92;;;1.77;;
21235;SDS011;10775;42.678;26.324;2022-10-26T21:46:05;2.70;;;1.48;;
21235;SDS011;10775;42.678;26.324;2022-10-26T21:48:32;2.72;;;2.05;;
21235;SDS011;10775;42.678;26.324;2022-10-26T21:51:02;5.13;;;2.35;;
21235;SDS011;10775;42.678;26.324;2022-10-26T21:53:32;2.83;;;1.95;;
21235;SDS011;10775;42.678;26.324;2022-10-26T21:56:01;2.40;;;1.80;;
21235;SDS011;10775;42.678;26.324;2022-10-26T21:58:29;2.85;;;2.10;;
21235;SDS011;10775;42.678;26.324;2022-10-26T22:03:31;2.63;;;1.88;;
21235;SDS011;10775;42.678;26.324;2022-10-26T22:05:56;3.45;;;1.85;;
21235;SDS011;10775;42.678;26.324;2022-10-26T22:08:22;2.47;;;1.92;;
21235;SDS011;10775;42.678;26.324;2022-10-26T22:10:48;2.10;;;1.77;;
21235;SDS011;10775;42.678;26.324;2022-10-26T22:13:13;3.53;;;2.22;;
21235;SDS011;10775;42.678;26.324;2022-10-26T22:15:39;4.43;;;1.77;;
21235;SDS011;10775;42.678;26.324;2022-10-26T22:18:04;3.35;;;2.08;;
21235;SDS011;10775;42.678;26.324;2022-10-26T22:20:30;3.13;;;2.10;;
21235;SDS011;10775;42.678;26.324;2022-10-26T22:22:55;2.10;;;1.90;;
21235;SDS011;10775;42.678;26.324;2022-10-26T22:25:21;2.47;;;1.80;;
21235;SDS011;10775;42.678;26.324;2022-10-26T22:27:47;2.58;;;1.98;;
21235;SDS011;10775;42.678;26.324;2022-10-26T22:30:12;2.65;;;1.70;;
21235;SDS011;10775;42.678;26.324;2022-10-26T22:32:38;2.70;;;1.80;;
21235;SDS011;10775;42.678;26.324;2022-10-26T22:35:04;2.38;;;1.65;;
21235;SDS011;10775;42.678;26.324;2022-10-26T22:37:30;2.67;;;1.75;;
21235;SDS011;10775;42.678;26.324;2022-10-26T22:39:55;2.83;;;2.08;;
21235;SDS011;10775;42.678;26.324;2022-10-26T22:42:21;3.42;;;1.92;;
21235;SDS011;10775;42.678;26.324;2022-10-26T22:44:47;1.75;;;1.45;;
21235;SDS011;10775;42.678;26.324;2022-10-26T22:47:12;2.78;;;1.90;;
21235;SDS011;10775;42.678;26.324;2022-10-26T22:49:38;2.80;;;1.83;;
21235;SDS011;10775;42.678;26.324;2022-10-26T22:52:03;3.45;;;1.80;;
21235;SDS011;10775;42.678;26.324;2022-10-26T22:54:29;2.85;;;1.80;;
21235;SDS011;10775;42.678;26.324;2022-10-26T22:56:55;4.30;;;1.70;;
21235;SDS011;10775;42.678;26.324;2022-10-26T22:59:20;3.03;;;2.00;;
21235;SDS011;10775;42.678;26.324;2022-10-26T23:01:46;2.40;;;2.00;;